sensor_id;sensor_type;location;lat;lon;timestamp;temperature;humidity
51739;DHT22;37815;52.692;6.226;2022-11-20T00:00:00;6.00;93.70
51739;DHT22;37815;52.692;6.226;2022-11-20T00:05:01;6.00;93.70
51739;DHT22;37815;52.692;6.226;2022-11-20T00:10:02;6.30;93.80
51739;DHT22;37815;52.692;6.226;2022-11-20T00:15:03;5.90;93.70
51739;DHT22;37815;52.692;6.226;2022-11-20T00:20:05;5.90;93.70
51739;DHT22;37815;52.692;6.226;2022-11-20T00:25:06;5.90;93.70
51739;DHT22;37815;52.692;6.226;2022-11-20T00:30:07;5.90;93.60
51739;DHT22;37815;52.692;6.226;2022-11-20T00:35:08;5.80;93.60
51739;DHT22;37815;52.692;6.226;2022-11-20T00:40:09;5.80;93.60
51739;DHT22;37815;52.692;6.226;2022-11-20T00:45:10;5.80;93.60
51739;DHT22;37815;52.692;6.226;2022-11-20T00:50:11;5.80;93.60
51739;DHT22;37815;52.692;6.226;2022-11-20T00:55:11;5.80;93.60
51739;DHT22;37815;52.692;6.226;2022-11-20T01:00:12;5.80;93.60
51739;DHT22;37815;52.692;6.226;2022-11-20T01:05:13;5.80;93.50
51739;DHT22;37815;52.692;6.226;2022-11-20T01:10:13;5.80;93.50
51739;DHT22;37815;52.692;6.226;2022-11-20T01:15:14;5.70;93.50
51739;DHT22;37815;52.692;6.226;2022-11-20T01:20:15;5.70;93.50
51739;DHT22;37815;52.692;6.226;2022-11-20T01:25:16;5.70;93.50
51739;DHT22;37815;52.692;6.226;2022-11-20T01:30:16;5.70;93.50
51739;DHT22;37815;52.692;6.226;2022-11-20T01:35:17;5.70;93.50
51739;DHT22;37815;52.692;6.226;2022-11-20T01:40:18;6.00;93.50
51739;DHT22;37815;52.692;6.226;2022-11-20T01:50:57;5.60;93.20
51739;DHT22;37815;52.692;6.226;2022-11-20T01:56:00;6.00;93.50
51739;DHT22;37815;52.692;6.226;2022-11-20T02:01:03;5.90;93.50
51739;DHT22;37815;52.692;6.226;2022-11-20T02:06:17;5.60;93.40
51739;DHT22;37815;52.692;6.226;2022-11-20T02:11:19;5.60;93.20
51739;DHT22;37815;52.692;6.226;2022-11-20T02:16:34;6.10;93.50
51739;DHT22;37815;52.692;6.226;2022-11-20T02:21:42;6.20;93.50
51739;DHT22;37815;52.692;6.226;2022-11-20T02:26:47;5.90;93.30
51739;DHT22;37815;52.692;6.226;2022-11-20T02:31:50;5.90;92.60
51739;DHT22;37815;52.692;6.226;2022-11-20T02:36:52;5.50;93.30
51739;DHT22;37815;52.692;6.226;2022-11-20T02:41:54;5.60;93.30
51739;DHT22;37815;52.692;6.226;2022-11-20T02:46:57;5.50;93.30
51739;DHT22;37815;52.692;6.226;2022-11-20T02:51:59;5.50;93.20
51739;DHT22;37815;52.692;6.226;2022-11-20T02:57:00;5.50;93.30
51739;DHT22;37815;52.692;6.226;2022-11-20T03:02:00;5.60;93.30
51739;DHT22;37815;52.692;6.226;2022-11-20T03:07:02;5.50;93.20
51739;DHT22;37815;52.692;6.226;2022-11-20T03:12:03;6.10;93.40
51739;DHT22;37815;52.692;6.226;2022-11-20T03:17:04;5.40;93.50
51739;DHT22;37815;52.692;6.226;2022-11-20T03:22:04;5.40;93.20
51739;DHT22;37815;52.692;6.226;2022-11-20T03:27:05;6.20;93.40
51739;DHT22;37815;52.692;6.226;2022-11-20T03:32:06;5.40;93.20
51739;DHT22;37815;52.692;6.226;2022-11-20T03:37:06;5.40;93.10
51739;DHT22;37815;52.692;6.226;2022-11-20T03:42:08;5.40;93.20
51739;DHT22;37815;52.692;6.226;2022-11-20T03:47:29;5.40;93.10
51739;DHT22;37815;52.692;6.226;2022-11-20T03:52:30;5.40;93.10
51739;DHT22;37815;52.692;6.226;2022-11-20T03:57:30;5.30;93.10
51739;DHT22;37815;52.692;6.226;2022-11-20T04:02:31;5.30;93.10
51739;DHT22;37815;52.692;6.226;2022-11-20T04:07:34;5.80;93.20
51739;DHT22;37815;52.692;6.226;2022-11-20T04:12:34;5.30;93.10
51739;DHT22;37815;52.692;6.226;2022-11-20T04:17:35;5.30;93.10
51739;DHT22;37815;52.692;6.226;2022-11-20T04:22:36;5.70;93.10
51739;DHT22;37815;52.692;6.226;2022-11-20T04:27:37;5.20;93.00
51739;DHT22;37815;52.692;6.226;2022-11-20T04:32:37;5.20;93.00
51739;DHT22;37815;52.692;6.226;2022-11-20T04:37:38;5.20;92.90
51739;DHT22;37815;52.692;6.226;2022-11-20T04:42:39;5.40;93.00
51739;DHT22;37815;52.692;6.226;2022-11-20T04:47:39;5.20;92.90
51739;DHT22;37815;52.692;6.226;2022-11-20T04:52:40;5.20;92.90
51739;DHT22;37815;52.692;6.226;2022-11-20T04:57:41;5.20;92.90
51739;DHT22;37815;52.692;6.226;2022-11-20T05:02:42;5.20;92.90
51739;DHT22;37815;52.692;6.226;2022-11-20T05:07:42;5.60;93.00
51739;DHT22;37815;52.692;6.226;2022-11-20T05:12:43;5.20;92.90
51739;DHT22;37815;52.692;6.226;2022-11-20T05:17:50;5.10;92.80
51739;DHT22;37815;52.692;6.226;2022-11-20T05:22:51;5.10;92.80
51739;DHT22;37815;52.692;6.226;2022-11-20T05:27:53;5.20;92.80
51739;DHT22;37815;52.692;6.226;2022-11-20T05:32:53;5.80;93.00
51739;DHT22;37815;52.692;6.226;2022-11-20T05:37:54;5.10;92.80
51739;DHT22;37815;52.692;6.226;2022-11-20T05:42:55;5.30;92.80
51739;DHT22;37815;52.692;6.226;2022-11-20T05:47:59;5.10;92.80
51739;DHT22;37815;52.692;6.226;2022-11-20T05:53:03;5.00;92.70
51739;DHT22;37815;52.692;6.226;2022-11-20T05:58:03;5.30;92.80
51739;DHT22;37815;52.692;6.226;2022-11-20T06:03:04;5.70;92.80
51739;DHT22;37815;52.692;6.226;2022-11-20T06:08:05;5.00;92.70
51739;DHT22;37815;52.692;6.226;2022-11-20T06:13:05;6.40;93.00
51739;DHT22;37815;52.692;6.226;2022-11-20T06:18:06;5.20;92.70
51739;DHT22;37815;52.692;6.226;2022-11-20T06:23:07;5.00;92.60
51739;DHT22;37815;52.692;6.226;2022-11-20T06:28:08;5.00;92.60
51739;DHT22;37815;52.692;6.226;2022-11-20T06:33:09;5.00;92.60
51739;DHT22;37815;52.692;6.226;2022-11-20T06:38:10;4.90;92.60
51739;DHT22;37815;52.692;6.226;2022-11-20T06:43:10;5.60;92.70
51739;DHT22;37815;52.692;6.226;2022-11-20T06:48:11;4.90;92.60
51739;DHT22;37815;52.692;6.226;2022-11-20T06:53:12;4.90;92.50
51739;DHT22;37815;52.692;6.226;2022-11-20T06:58:14;5.00;92.60
51739;DHT22;37815;52.692;6.226;2022-11-20T07:03:15;4.90;92.50
51739;DHT22;37815;52.692;6.226;2022-11-20T07:08:16;6.20;92.80
51739;DHT22;37815;52.692;6.226;2022-11-20T07:13:16;5.10;92.60
51739;DHT22;37815;52.692;6.226;2022-11-20T07:18:17;5.10;92.60
51739;DHT22;37815;52.692;6.226;2022-11-20T07:23:18;4.90;92.50
51739;DHT22;37815;52.692;6.226;2022-11-20T07:28:19;4.90;92.50
51739;DHT22;37815;52.692;6.226;2022-11-20T07:33:20;4.90;92.50
51739;DHT22;37815;52.692;6.226;2022-11-20T07:38:20;5.00;92.50
51739;DHT22;37815;52.692;6.226;2022-11-20T07:43:21;5.00;92.50
51739;DHT22;37815;52.692;6.226;2022-11-20T07:48:22;4.80;92.50
51739;DHT22;37815;52.692;6.226;2022-11-20T07:53:23;4.90;92.50
51739;DHT22;37815;52.692;6.226;2022-11-20T07:58:24;4.90;92.50
51739;DHT22;37815;52.692;6.226;2022-11-20T08:03:25;5.70;92.60
51739;DHT22;37815;52.692;6.226;2022-11-20T08:08:26;4.90;92.40
51739;DHT22;37815;52.692;6.226;2022-11-20T08:13:26;5.20;92.50
51739;DHT22;37815;52.692;6.226;2022-11-20T08:18:45;5.30;92.50
51739;DHT22;37815;52.692;6.226;2022-11-20T08:23:46;5.10;92.00
51739;DHT22;37815;52.692;6.226;2022-11-20T08:28:47;5.00;92.30
51739;DHT22;37815;52.692;6.226;2022-11-20T08:33:48;5.90;92.60
51739;DHT22;37815;52.692;6.226;2022-11-20T08:38:53;5.00;92.40
51739;DHT22;37815;52.692;6.226;2022-11-20T08:43:58;5.00;92.30
51739;DHT22;37815;52.692;6.226;2022-11-20T08:48:59;6.20;92.50
51739;DHT22;37815;52.692;6.226;2022-11-20T08:54:01;5.10;92.20
51739;DHT22;37815;52.692;6.226;2022-11-20T08:59:01;5.20;92.10
51739;DHT22;37815;52.692;6.226;2022-11-20T09:04:02;5.20;92.10
51739;DHT22;37815;52.692;6.226;2022-11-20T09:09:05;5.30;92.10
51739;DHT22;37815;52.692;6.226;2022-11-20T09:14:06;5.30;92.10
51739;DHT22;37815;52.692;6.226;2022-11-20T09:19:07;5.30;92.10
51739;DHT22;37815;52.692;6.226;2022-11-20T09:24:07;5.40;92.10
51739;DHT22;37815;52.692;6.226;2022-11-20T09:29:08;5.40;92.10
51739;DHT22;37815;52.692;6.226;2022-11-20T09:34:09;5.40;92.10
51739;DHT22;37815;52.692;6.226;2022-11-20T09:39:10;5.70;92.10
51739;DHT22;37815;52.692;6.226;2022-11-20T09:54:54;5.50;92.20
51739;DHT22;37815;52.692;6.226;2022-11-20T09:59:58;5.60;92.50
51739;DHT22;37815;52.692;6.226;2022-11-20T10:05:06;5.70;92.30
51739;DHT22;37815;52.692;6.226;2022-11-20T10:10:28;5.70;92.30
51739;DHT22;37815;52.692;6.226;2022-11-20T10:26:22;5.70;92.10
51739;DHT22;37815;52.692;6.226;2022-11-20T10:31:28;5.80;92.20
51739;DHT22;37815;52.692;6.226;2022-11-20T10:36:36;5.80;92.20
51739;DHT22;37815;52.692;6.226;2022-11-20T10:41:41;5.90;92.20
51739;DHT22;37815;52.692;6.226;2022-11-20T10:46:45;5.90;92.10
51739;DHT22;37815;52.692;6.226;2022-11-20T11:02:54;5.60;91.90
51739;DHT22;37815;52.692;6.226;2022-11-20T11:07:56;6.30;92.30
51739;DHT22;37815;52.692;6.226;2022-11-20T11:12:57;6.20;92.40
51739;DHT22;37815;52.692;6.226;2022-11-20T11:17:58;5.70;92.20
51739;DHT22;37815;52.692;6.226;2022-11-20T11:23:00;6.20;92.30
51739;DHT22;37815;52.692;6.226;2022-11-20T11:33:22;5.90;92.40
51739;DHT22;37815;52.692;6.226;2022-11-20T11:38:41;6.30;92.50
51739;DHT22;37815;52.692;6.226;2022-11-20T11:43:54;6.00;92.30
51739;DHT22;37815;52.692;6.226;2022-11-20T11:49:17;6.00;92.60
51739;DHT22;37815;52.692;6.226;2022-11-20T11:54:27;6.10;92.50
51739;DHT22;37815;52.692;6.226;2022-11-20T12:05:13;6.10;92.30
51739;DHT22;37815;52.692;6.226;2022-11-20T12:10:40;6.10;92.40
51739;DHT22;37815;52.692;6.226;2022-11-20T12:15:46;6.10;92.40
51739;DHT22;37815;52.692;6.226;2022-11-20T12:20:57;6.10;92.40
51739;DHT22;37815;52.692;6.226;2022-11-20T12:26:07;6.10;92.40
51739;DHT22;37815;52.692;6.226;2022-11-20T12:31:26;6.10;92.40
51739;DHT22;37815;52.692;6.226;2022-11-20T12:36:41;6.10;92.30
51739;DHT22;37815;52.692;6.226;2022-11-20T12:47:42;7.20;92.50
51739;DHT22;37815;52.692;6.226;2022-11-20T12:58:36;6.10;92.40
51739;DHT22;37815;52.692;6.226;2022-11-20T13:03:51;6.10;92.30
51739;DHT22;37815;52.692;6.226;2022-11-20T13:08:56;6.10;92.40
51739;DHT22;37815;52.692;6.226;2022-11-20T13:19:20;6.10;92.30
51739;DHT22;37815;52.692;6.226;2022-11-20T13:29:23;6.20;92.50
51739;DHT22;37815;52.692;6.226;2022-11-20T13:34:26;6.20;92.50
51739;DHT22;37815;52.692;6.226;2022-11-20T13:39:29;7.00;92.70
51739;DHT22;37815;52.692;6.226;2022-11-20T13:49:58;6.20;92.60
51739;DHT22;37815;52.692;6.226;2022-11-20T14:00:24;6.20;92.50
51739;DHT22;37815;52.692;6.226;2022-11-20T14:05:25;6.20;92.60
51739;DHT22;37815;52.692;6.226;2022-11-20T14:10:28;6.20;92.70
51739;DHT22;37815;52.692;6.226;2022-11-20T14:15:34;6.20;92.70
51739;DHT22;37815;52.692;6.226;2022-11-20T14:20:34;6.20;92.70
51739;DHT22;37815;52.692;6.226;2022-11-20T14:25:35;6.40;92.80
51739;DHT22;37815;52.692;6.226;2022-11-20T14:30:43;6.20;92.70
51739;DHT22;37815;52.692;6.226;2022-11-20T14:35:49;6.20;92.80
51739;DHT22;37815;52.692;6.226;2022-11-20T14:40:50;7.30;93.10
51739;DHT22;37815;52.692;6.226;2022-11-20T14:46:07;6.20;92.80
51739;DHT22;37815;52.692;6.226;2022-11-20T14:51:11;6.20;92.80
51739;DHT22;37815;52.692;6.226;2022-11-20T14:56:24;6.20;92.90
51739;DHT22;37815;52.692;6.226;2022-11-20T15:01:29;6.20;92.90
51739;DHT22;37815;52.692;6.226;2022-11-20T15:06:30;6.20;93.00
51739;DHT22;37815;52.692;6.226;2022-11-20T15:11:34;6.20;93.00
51739;DHT22;37815;52.692;6.226;2022-11-20T15:16:35;6.20;93.00
51739;DHT22;37815;52.692;6.226;2022-11-20T15:21:36;6.50;93.10
51739;DHT22;37815;52.692;6.226;2022-11-20T15:26:38;6.80;93.30
51739;DHT22;37815;52.692;6.226;2022-11-20T15:31:40;6.20;93.00
51739;DHT22;37815;52.692;6.226;2022-11-20T15:36:43;6.50;93.20
51739;DHT22;37815;52.692;6.226;2022-11-20T15:41:44;6.30;93.10
51739;DHT22;37815;52.692;6.226;2022-11-20T15:46:45;6.50;93.20
51739;DHT22;37815;52.692;6.226;2022-11-20T15:51:48;6.40;93.40
51739;DHT22;37815;52.692;6.226;2022-11-20T15:56:49;6.30;93.50
51739;DHT22;37815;52.692;6.226;2022-11-20T16:01:52;6.60;93.60
51739;DHT22;37815;52.692;6.226;2022-11-20T16:06:53;6.30;93.50
51739;DHT22;37815;52.692;6.226;2022-11-20T16:11:54;6.20;93.50
51739;DHT22;37815;52.692;6.226;2022-11-20T16:16:54;6.10;93.50
51739;DHT22;37815;52.692;6.226;2022-11-20T16:21:57;6.10;93.50
51739;DHT22;37815;52.692;6.226;2022-11-20T16:26:58;6.10;93.50
51739;DHT22;37815;52.692;6.226;2022-11-20T16:31:59;6.10;93.60
51739;DHT22;37815;52.692;6.226;2022-11-20T16:36:59;6.20;93.60
51739;DHT22;37815;52.692;6.226;2022-11-20T16:42:03;6.40;93.70
51739;DHT22;37815;52.692;6.226;2022-11-20T16:47:04;6.20;94.20
51739;DHT22;37815;52.692;6.226;2022-11-20T16:52:10;6.30;93.90
51739;DHT22;37815;52.692;6.226;2022-11-20T16:57:10;6.50;93.90
51739;DHT22;37815;52.692;6.226;2022-11-20T17:02:11;7.50;94.20
51739;DHT22;37815;52.692;6.226;2022-11-20T17:07:12;6.20;94.00
51739;DHT22;37815;52.692;6.226;2022-11-20T17:12:12;6.20;94.10
51739;DHT22;37815;52.692;6.226;2022-11-20T17:17:13;6.20;94.10
51739;DHT22;37815;52.692;6.226;2022-11-20T17:22:14;6.10;94.20
51739;DHT22;37815;52.692;6.226;2022-11-20T17:27:14;6.10;94.30
51739;DHT22;37815;52.692;6.226;2022-11-20T17:32:15;6.20;94.60
51739;DHT22;37815;52.692;6.226;2022-11-20T17:37:16;6.30;94.50
51739;DHT22;37815;52.692;6.226;2022-11-20T17:42:17;6.20;94.50
51739;DHT22;37815;52.692;6.226;2022-11-20T17:47:27;6.20;94.60
51739;DHT22;37815;52.692;6.226;2022-11-20T17:52:27;6.20;94.70
51739;DHT22;37815;52.692;6.226;2022-11-20T17:57:28;6.30;94.70
51739;DHT22;37815;52.692;6.226;2022-11-20T18:02:48;6.60;94.90
51739;DHT22;37815;52.692;6.226;2022-11-20T18:07:51;6.30;94.80
51739;DHT22;37815;52.692;6.226;2022-11-20T18:12:53;6.00;94.80
51739;DHT22;37815;52.692;6.226;2022-11-20T18:17:54;6.30;94.90
51739;DHT22;37815;52.692;6.226;2022-11-20T18:22:55;6.30;94.90
51739;DHT22;37815;52.692;6.226;2022-11-20T18:27:55;6.70;95.00
51739;DHT22;37815;52.692;6.226;2022-11-20T18:32:56;6.30;95.00
51739;DHT22;37815;52.692;6.226;2022-11-20T18:37:57;7.00;95.20
51739;DHT22;37815;52.692;6.226;2022-11-20T18:42:58;6.30;95.10
51739;DHT22;37815;52.692;6.226;2022-11-20T18:48:17;7.40;95.40
51739;DHT22;37815;52.692;6.226;2022-11-20T18:53:18;6.70;95.40
51739;DHT22;37815;52.692;6.226;2022-11-20T18:58:18;6.30;95.40
51739;DHT22;37815;52.692;6.226;2022-11-20T19:03:19;6.30;95.40
51739;DHT22;37815;52.692;6.226;2022-11-20T19:08:20;6.40;95.70
51739;DHT22;37815;52.692;6.226;2022-11-20T19:13:20;6.40;95.50
51739;DHT22;37815;52.692;6.226;2022-11-20T19:18:21;6.40;95.60
51739;DHT22;37815;52.692;6.226;2022-11-20T19:23:22;6.70;95.80
51739;DHT22;37815;52.692;6.226;2022-11-20T19:28:23;6.50;95.80
51739;DHT22;37815;52.692;6.226;2022-11-20T19:33:24;6.40;95.90
51739;DHT22;37815;52.692;6.226;2022-11-20T19:38:24;6.50;95.90
51739;DHT22;37815;52.692;6.226;2022-11-20T19:43:25;6.60;96.00
51739;DHT22;37815;52.692;6.226;2022-11-20T19:48:29;6.40;96.00
51739;DHT22;37815;52.692;6.226;2022-11-20T19:53:29;6.40;96.10
51739;DHT22;37815;52.692;6.226;2022-11-20T19:58:30;6.60;96.20
51739;DHT22;37815;52.692;6.226;2022-11-20T20:03:31;6.50;96.10
51739;DHT22;37815;52.692;6.226;2022-11-20T20:08:32;7.00;96.20
51739;DHT22;37815;52.692;6.226;2022-11-20T20:13:32;6.50;96.10
51739;DHT22;37815;52.692;6.226;2022-11-20T20:18:33;6.40;96.00
51739;DHT22;37815;52.692;6.226;2022-11-20T20:23:34;6.40;96.00
51739;DHT22;37815;52.692;6.226;2022-11-20T20:28:36;6.40;96.00
51739;DHT22;37815;52.692;6.226;2022-11-20T20:33:38;6.40;96.00
51739;DHT22;37815;52.692;6.226;2022-11-20T20:38:39;6.40;95.90
51739;DHT22;37815;52.692;6.226;2022-11-20T20:43:40;6.50;95.90
51739;DHT22;37815;52.692;6.226;2022-11-20T20:49:00;6.40;95.90
51739;DHT22;37815;52.692;6.226;2022-11-20T20:54:01;6.40;95.90
51739;DHT22;37815;52.692;6.226;2022-11-20T20:59:03;6.40;95.90
51739;DHT22;37815;52.692;6.226;2022-11-20T21:04:03;6.30;95.80
51739;DHT22;37815;52.692;6.226;2022-11-20T21:09:04;6.30;95.80
51739;DHT22;37815;52.692;6.226;2022-11-20T21:14:05;6.40;95.80
51739;DHT22;37815;52.692;6.226;2022-11-20T21:19:06;6.50;95.80
51739;DHT22;37815;52.692;6.226;2022-11-20T21:24:07;6.40;95.80
51739;DHT22;37815;52.692;6.226;2022-11-20T21:29:08;6.30;95.80
51739;DHT22;37815;52.692;6.226;2022-11-20T21:34:10;6.30;95.80
51739;DHT22;37815;52.692;6.226;2022-11-20T21:39:12;6.30;95.80
51739;DHT22;37815;52.692;6.226;2022-11-20T21:44:14;6.30;95.80
51739;DHT22;37815;52.692;6.226;2022-11-20T21:49:15;6.30;95.70
51739;DHT22;37815;52.692;6.226;2022-11-20T21:54:17;6.30;95.70
51739;DHT22;37815;52.692;6.226;2022-11-20T21:59:18;6.30;95.70
51739;DHT22;37815;52.692;6.226;2022-11-20T22:04:18;6.40;95.70
51739;DHT22;37815;52.692;6.226;2022-11-20T22:09:21;6.90;95.80
51739;DHT22;37815;52.692;6.226;2022-11-20T22:14:22;6.30;95.70
51739;DHT22;37815;52.692;6.226;2022-11-20T22:19:22;6.40;95.70
51739;DHT22;37815;52.692;6.226;2022-11-20T22:24:23;7.20;95.90
51739;DHT22;37815;52.692;6.226;2022-11-20T22:29:25;6.50;95.70
51739;DHT22;37815;52.692;6.226;2022-11-20T22:34:26;6.30;95.70
51739;DHT22;37815;52.692;6.226;2022-11-20T22:39:26;6.30;95.70
51739;DHT22;37815;52.692;6.226;2022-11-20T22:44:27;6.40;95.70
51739;DHT22;37815;52.692;6.226;2022-11-20T22:49:28;6.30;95.70
51739;DHT22;37815;52.692;6.226;2022-11-20T22:54:28;7.00;95.80
51739;DHT22;37815;52.692;6.226;2022-11-20T22:59:29;6.30;95.70
51739;DHT22;37815;52.692;6.226;2022-11-20T23:04:30;6.30;95.70
51739;DHT22;37815;52.692;6.226;2022-11-20T23:09:30;6.30;95.60
51739;DHT22;37815;52.692;6.226;2022-11-20T23:14:31;6.30;95.60
51739;DHT22;37815;52.692;6.226;2022-11-20T23:19:32;6.30;95.60
51739;DHT22;37815;52.692;6.226;2022-11-20T23:24:32;6.30;95.60
51739;DHT22;37815;52.692;6.226;2022-11-20T23:29:33;6.60;95.70
51739;DHT22;37815;52.692;6.226;2022-11-20T23:34:34;6.50;95.90
51739;DHT22;37815;52.692;6.226;2022-11-20T23:39:34;6.30;95.60
51739;DHT22;37815;52.692;6.226;2022-11-20T23:44:35;6.40;95.60
51739;DHT22;37815;52.692;6.226;2022-11-20T23:49:36;6.30;95.60
51739;DHT22;37815;52.692;6.226;2022-11-20T23:54:36;6.30;95.60
51739;DHT22;37815;52.692;6.226;2022-11-20T23:59:37;6.50;95.70
